Time;durP1;ratioP1;P1;durP2;ratioP2;P2;SDS_P1;SDS_P2;PMS_P1;PMS_P2;Temp;Humidity;BMP_temperature;BMP_pressure;BME280_temperature;BME280_humidity;BME280_pressure;Samples;Min_cycle;Max_cycle;Signal;HPM_P1;HPM_P2
2022/05/17 00:01:28;;;;;;;;;;;16.80;99.90;;;;;;5094322;28;19908;-77
2022/05/17 00:03:55;;;;;;;;;;;16.90;99.90;;;;;;5086651;28;19920;-77
2022/05/17 00:06:22;;;;;;;;;;;17.00;99.90;;;;;;5087631;28;19916;-77
2022/05/17 00:08:48;;;;;;;;;;;17.00;99.90;;;;;;5093356;28;20373;-77
2022/05/17 00:11:15;;;;;;;;;;;17.10;99.90;;;;;;5096844;28;19911;-76
2022/05/17 00:13:42;;;;;;;;;;;17.00;99.90;;;;;;5114228;28;19915;-78
2022/05/17 00:16:09;;;;;;;;;;;17.10;99.90;;;;;;5114242;28;19912;-76
2022/05/17 00:18:36;;;;;;;;;;;17.10;99.90;;;;;;5114323;28;19923;-77
2022/05/17 00:21:03;;;;;;;;;;;17.10;99.90;;;;;;5114217;28;19954;-77
2022/05/17 00:23:30;;;;;;;;;;;17.20;99.90;;;;;;5114263;28;19914;-77
2022/05/17 00:25:56;;;;;;;;;;;17.20;99.90;;;;;;5113967;28;20281;-75
2022/05/17 00:28:23;;;;;;;;;;;17.20;99.90;;;;;;5114029;28;19908;-76
2022/05/17 00:30:51;;;;;;;;;;;17.20;99.90;;;;;;5112704;28;19907;-76
2022/05/17 00:33:17;;;;;;;;;;;17.30;99.90;;;;;;5113925;28;19990;-77
2022/05/17 00:35:45;;;;;;;;;;;17.30;99.90;;;;;;5113654;28;19907;-76
2022/05/17 00:38:12;;;;;;;;;;;17.40;99.90;;;;;;5113972;28;19920;-75
2022/05/17 00:40:40;;;;;;;;;;;17.40;99.90;;;;;;5113875;28;20417;-77
2022/05/17 00:43:07;;;;;;;;;;;17.40;99.90;;;;;;5114090;28;19919;-77
2022/05/17 00:45:35;;;;;;;;;;;17.40;99.90;;;;;;5113570;28;19911;-79
2022/05/17 00:48:04;;;;;;;;;;;17.40;99.90;;;;;;5113816;28;20377;-78
2022/05/17 00:50:34;;;;;;;;;;;17.60;99.90;;;;;;5113692;28;20413;-77
2022/05/17 00:53:07;;;;;;;;;;;17.60;99.90;;;;;;5113603;28;19908;-76
2022/05/17 00:55:46;;;;;;;;;;;17.60;99.90;;;;;;5113592;28;19998;-84
2022/05/17 00:58:15;;;;;;;;;;;17.70;99.90;;;;;;5113362;28;19960;-75
2022/05/17 01:00:47;;;;;;;;;;;17.90;99.90;;;;;;5115423;28;19908;-76
2022/05/17 01:03:16;;;;;;;;;;;18.10;99.80;;;;;;5117930;28;19915;-77
2022/05/17 01:05:45;;;;;;;;;;;18.40;98.90;;;;;;5117823;28;19922;-78
2022/05/17 01:08:14;;;;;;;;;;;18.70;98.70;;;;;;5117982;28;20080;-78
2022/05/17 01:10:40;;;;;;;;;;;18.80;98.90;;;;;;5117613;28;19915;-76
2022/05/17 01:15:52;;;;;;;;;;;19.00;99.60;;;;;;5117619;28;19930;-77
2022/05/17 01:18:19;;;;;;;;;;;19.10;97.80;;;;;;5117755;28;19918;-77
2022/05/17 01:20:46;;;;;;;;;;;18.90;97.40;;;;;;5117672;28;19908;-76
2022/05/17 01:23:13;;;;;;;;;;;18.80;98.30;;;;;;5116524;28;20010;-76
2022/05/17 01:25:40;;;;;;;;;;;18.70;97.80;;;;;;5117138;28;19915;-76
2022/05/17 01:28:20;;;;;;;;;;;18.70;98.60;;;;;;5117316;28;20354;-75
2022/05/17 01:30:46;;;;;;;;;;;18.50;98.40;;;;;;5117531;28;20380;-77
2022/05/17 01:33:17;;;;;;;;;;;18.50;98.30;;;;;;5117290;28;19939;-75
2022/05/17 01:35:44;;;;;;;;;;;18.50;98.80;;;;;;5116208;28;20293;-76
2022/05/17 01:38:10;;;;;;;;;;;18.60;98.20;;;;;;5117234;28;19908;-78
2022/05/17 01:40:38;;;;;;;;;;;18.60;98.80;;;;;;5117057;28;19908;-77
2022/05/17 01:43:05;;;;;;;;;;;18.50;98.60;;;;;;5115953;28;20415;-77
2022/05/17 01:45:31;;;;;;;;;;;18.50;98.90;;;;;;5116832;28;19912;-76
2022/05/17 01:47:58;;;;;;;;;;;18.50;99.10;;;;;;5117140;28;19912;-75
2022/05/17 01:50:25;;;;;;;;;;;18.50;99.10;;;;;;5116917;28;19911;-76
2022/05/17 01:52:52;;;;;;;;;;;18.50;99.90;;;;;;5116985;28;19994;-76
2022/05/17 01:55:19;;;;;;;;;;;18.60;99.30;;;;;;5116822;28;20386;-76
2022/05/17 01:57:46;;;;;;;;;;;18.50;99.70;;;;;;5115541;28;19907;-76
2022/05/17 02:00:14;;;;;;;;;;;18.50;99.90;;;;;;5116605;28;20418;-75
2022/05/17 02:02:40;;;;;;;;;;;18.50;98.90;;;;;;5085981;28;19919;-77
2022/05/17 02:05:08;;;;;;;;;;;18.50;99.30;;;;;;5096339;28;19931;-75
2022/05/17 02:07:35;;;;;;;;;;;18.50;99.90;;;;;;5096075;28;19959;-75
2022/05/17 02:10:01;;;;;;;;;;;18.60;99.60;;;;;;5096211;28;20320;-76
2022/05/17 02:12:28;;;;;;;;;;;18.60;99.30;;;;;;5094019;28;20294;-76
2022/05/17 02:14:54;;;;;;;;;;;18.60;99.90;;;;;;5096038;28;19915;-76
2022/05/17 02:17:22;;;;;;;;;;;18.60;99.90;;;;;;5096226;28;19908;-77
2022/05/17 02:19:48;;;;;;;;;;;18.60;99.90;;;;;;5095947;28;20286;-76
2022/05/17 02:22:15;;;;;;;;;;;18.60;98.80;;;;;;5096005;28;19908;-77
2022/05/17 02:24:42;;;;;;;;;;;18.60;98.80;;;;;;5095947;28;19922;-76
2022/05/17 02:27:09;;;;;;;;;;;18.60;99.00;;;;;;5128868;27;20340;-77
2022/05/17 02:29:35;;;;;;;;;;;18.70;99.90;;;;;;5095734;28;20364;-76
2022/05/17 02:32:02;;;;;;;;;;;18.70;99.60;;;;;;5095972;28;19909;-76
2022/05/17 02:34:29;;;;;;;;;;;18.70;99.40;;;;;;5096092;28;20320;-76
2022/05/17 02:36:56;;;;;;;;;;;18.60;99.20;;;;;;5095727;28;19916;-76
2022/05/17 02:39:22;;;;;;;;;;;18.60;99.90;;;;;;5095847;28;20491;-75
2022/05/17 02:41:49;;;;;;;;;;;18.60;99.90;;;;;;5094179;28;19912;-75
2022/05/17 02:44:15;;;;;;;;;;;18.60;99.50;;;;;;5095777;28;19915;-75
2022/05/17 02:46:42;;;;;;;;;;;18.70;99.90;;;;;;5095599;28;19923;-76
2022/05/17 02:49:09;;;;;;;;;;;18.70;99.00;;;;;;5095719;28;19964;-75
2022/05/17 02:51:36;;;;;;;;;;;18.70;99.90;;;;;;5095424;28;19920;-75
2022/05/17 02:54:05;;;;;;;;;;;18.70;99.30;;;;;;5095555;28;20305;-77
2022/05/17 02:56:32;;;;;;;;;;;18.60;99.00;;;;;;5095303;28;19958;-75
2022/05/17 02:58:59;;;;;;;;;;;18.60;99.40;;;;;;5095590;28;19912;-76
2022/05/17 03:01:26;;;;;;;;;;;18.50;99.70;;;;;;5095360;28;19908;-78
2022/05/17 03:03:52;;;;;;;;;;;18.60;99.50;;;;;;5095003;28;19908;-76
2022/05/17 03:06:19;;;;;;;;;;;18.50;99.90;;;;;;5094891;28;20003;-75
2022/05/17 03:08:46;;;;;;;;;;;18.60;99.90;;;;;;5095247;28;19953;-76
2022/05/17 03:11:13;;;;;;;;;;;18.60;99.60;;;;;;5094838;28;19908;-77
2022/05/17 03:13:39;;;;;;;;;;;18.60;99.20;;;;;;5095036;28;19966;-76
2022/05/17 03:16:06;;;;;;;;;;;18.60;99.80;;;;;;5095195;28;19912;-76
2022/05/17 03:18:33;;;;;;;;;;;18.60;99.90;;;;;;5095061;28;19915;-75
2022/05/17 03:20:59;;;;;;;;;;;18.70;99.60;;;;;;5094840;28;20281;-76
2022/05/17 03:23:26;;;;;;;;;;;18.70;99.80;;;;;;5094935;28;19920;-75
2022/05/17 03:25:53;;;;;;;;;;;18.70;99.70;;;;;;5094571;28;19912;-75
2022/05/17 03:28:19;;;;;;;;;;;18.70;99.90;;;;;;5093562;28;19916;-78
2022/05/17 03:30:46;;;;;;;;;;;18.80;99.90;;;;;;5094991;28;20259;-80
2022/05/17 03:33:13;;;;;;;;;;;18.90;99.20;;;;;;5094791;28;19972;-79
2022/05/17 03:35:39;;;;;;;;;;;18.90;99.60;;;;;;5094519;28;20274;-83
2022/05/17 03:38:06;;;;;;;;;;;18.80;98.70;;;;;;5094919;28;19915;-82
2022/05/17 03:40:33;;;;;;;;;;;18.70;99.90;;;;;;5094397;28;19914;-81
2022/05/17 03:42:59;;;;;;;;;;;18.80;99.50;;;;;;5094621;28;20349;-81
2022/05/17 03:45:26;;;;;;;;;;;18.90;99.00;;;;;;5094375;28;19909;-83
2022/05/17 03:47:53;;;;;;;;;;;18.80;99.90;;;;;;5094433;28;20287;-86
2022/05/17 03:50:20;;;;;;;;;;;18.90;99.30;;;;;;5094585;28;20439;-84
2022/05/17 03:52:47;;;;;;;;;;;18.90;99.40;;;;;;5094438;28;20387;-84
2022/05/17 03:55:13;;;;;;;;;;;18.80;99.50;;;;;;5094362;28;19908;-78
2022/05/17 03:57:40;;;;;;;;;;;18.80;99.50;;;;;;5094140;28;19908;-81
2022/05/17 04:00:08;;;;;;;;;;;18.80;99.40;;;;;;5093299;28;20385;-77
2022/05/17 04:02:38;;;;;;;;;;;18.80;98.60;;;;;;5081834;28;20263;-84
2022/05/17 04:05:05;;;;;;;;;;;18.90;98.70;;;;;;5093433;28;19908;-84
2022/05/17 04:07:31;;;;;;;;;;;18.90;98.20;;;;;;5093756;28;20380;-82
2022/05/17 04:09:58;;;;;;;;;;;18.90;98.80;;;;;;5093907;28;20282;-82
2022/05/17 04:12:25;;;;;;;;;;;18.90;98.10;;;;;;5092927;28;19930;-83
2022/05/17 04:14:54;;;;;;;;;;;18.90;98.30;;;;;;5094197;28;20037;-83
2022/05/17 04:17:20;;;;;;;;;;;18.90;98.00;;;;;;5084352;28;19920;-82
2022/05/17 04:19:47;;;;;;;;;;;18.90;99.40;;;;;;5092200;28;19919;-87
2022/05/17 04:22:14;;;;;;;;;;;18.90;97.80;;;;;;5093810;28;19920;-86
2022/05/17 04:24:45;;;;;;;;;;;18.90;98.00;;;;;;5091972;28;20436;-85
2022/05/17 04:27:14;;;;;;;;;;;19.00;98.10;;;;;;5092067;28;19916;-86
2022/05/17 04:29:41;;;;;;;;;;;19.00;98.10;;;;;;5091845;28;20321;-83
2022/05/17 04:32:08;;;;;;;;;;;19.00;98.80;;;;;;5092520;28;19912;-83
2022/05/17 04:34:35;;;;;;;;;;;18.90;98.40;;;;;;5091580;28;19915;-83
2022/05/17 04:37:02;;;;;;;;;;;18.90;99.80;;;;;;5091572;28;19943;-83
2022/05/17 04:39:28;;;;;;;;;;;19.00;98.80;;;;;;5092426;28;19912;-83
2022/05/17 04:41:55;;;;;;;;;;;18.90;98.90;;;;;;5091637;28;19908;-83
2022/05/17 04:44:22;;;;;;;;;;;18.90;98.70;;;;;;5091881;28;20324;-85
2022/05/17 04:46:48;;;;;;;;;;;18.90;98.60;;;;;;5090525;28;19916;-83
2022/05/17 04:49:18;;;;;;;;;;;19.00;98.50;;;;;;5092112;28;19969;-83
2022/05/17 04:51:50;;;;;;;;;;;18.90;98.40;;;;;;5092743;28;20023;-83
2022/05/17 04:54:16;;;;;;;;;;;18.90;98.50;;;;;;5093059;28;19908;-85
2022/05/17 04:56:43;;;;;;;;;;;18.90;98.50;;;;;;5094542;28;19915;-79
2022/05/17 04:59:09;;;;;;;;;;;18.90;98.00;;;;;;5093508;28;20490;-76
2022/05/17 05:01:38;;;;;;;;;;;19.00;98.40;;;;;;5093353;28;19908;-80
2022/05/17 05:04:05;;;;;;;;;;;18.90;98.20;;;;;;5093737;28;19909;-86
2022/05/17 05:06:32;;;;;;;;;;;19.00;98.30;;;;;;5093333;28;19916;-87
2022/05/17 05:09:01;;;;;;;;;;;19.00;97.40;;;;;;5092831;28;19912;-77
2022/05/17 05:11:31;;;;;;;;;;;19.00;97.30;;;;;;5092173;28;19961;-79
2022/05/17 05:13:58;;;;;;;;;;;19.00;97.40;;;;;;5093423;28;19915;-85
2022/05/17 05:16:27;;;;;;;;;;;19.00;98.50;;;;;;5093271;28;19916;-83
2022/05/17 05:18:54;;;;;;;;;;;18.90;98.20;;;;;;5093627;28;20378;-86
2022/05/17 05:21:21;;;;;;;;;;;18.90;98.10;;;;;;5093740;28;19908;-84
2022/05/17 05:23:48;;;;;;;;;;;18.90;98.00;;;;;;5093085;28;19923;-83
2022/05/17 05:26:15;;;;;;;;;;;18.90;97.80;;;;;;5092870;28;19923;-85
2022/05/17 05:28:43;;;;;;;;;;;19.10;98.10;;;;;;5093263;28;19962;-84
2022/05/17 05:31:12;;;;;;;;;;;19.10;98.30;;;;;;5093120;28;19999;-77
2022/05/17 05:33:39;;;;;;;;;;;19.10;98.10;;;;;;5091892;28;19951;-82
2022/05/17 05:36:06;;;;;;;;;;;19.00;98.40;;;;;;5093096;28;20286;-84
2022/05/17 05:38:33;;;;;;;;;;;19.10;98.20;;;;;;5092797;28;19908;-83
2022/05/17 05:41:00;;;;;;;;;;;19.10;98.70;;;;;;5092852;28;19908;-78
2022/05/17 05:43:27;;;;;;;;;;;19.10;98.20;;;;;;5092802;28;19908;-84
2022/05/17 05:45:53;;;;;;;;;;;19.00;98.20;;;;;;5092600;28;20007;-76
2022/05/17 05:48:20;;;;;;;;;;;18.90;99.90;;;;;;5095586;28;19920;-76
2022/05/17 05:50:49;;;;;;;;;;;19.00;99.00;;;;;;5095169;28;20394;-76
2022/05/17 05:53:16;;;;;;;;;;;19.00;98.80;;;;;;5097233;28;20284;-76
2022/05/17 05:55:43;;;;;;;;;;;18.90;99.20;;;;;;5096250;28;19908;-76
2022/05/17 05:58:10;;;;;;;;;;;18.90;99.40;;;;;;5096535;28;19908;-76
2022/05/17 06:00:38;;;;;;;;;;;18.80;99.10;;;;;;5096611;28;19908;-78
2022/05/17 06:03:05;;;;;;;;;;;18.80;98.50;;;;;;5096446;28;20381;-76
2022/05/17 06:05:32;;;;;;;;;;;18.80;98.20;;;;;;5094934;28;20318;-78
2022/05/17 06:07:59;;;;;;;;;;;18.80;98.40;;;;;;5096348;28;19912;-76
2022/05/17 06:10:26;;;;;;;;;;;18.80;98.60;;;;;;5096231;28;19947;-77
2022/05/17 06:12:52;;;;;;;;;;;18.80;98.90;;;;;;5096371;28;19908;-75
2022/05/17 06:15:19;;;;;;;;;;;18.80;98.40;;;;;;5096086;28;19912;-82
2022/05/17 06:17:46;;;;;;;;;;;18.80;98.90;;;;;;5095816;28;19922;-84
2022/05/17 06:20:14;;;;;;;;;;;18.80;99.00;;;;;;5096240;28;19908;-82
2022/05/17 06:22:41;;;;;;;;;;;18.80;98.50;;;;;;5096086;28;19969;-76
2022/05/17 06:25:09;;;;;;;;;;;18.70;98.90;;;;;;5095785;28;19908;-76
2022/05/17 06:27:36;;;;;;;;;;;18.70;98.40;;;;;;5095856;28;19923;-77
2022/05/17 06:30:03;;;;;;;;;;;18.70;98.80;;;;;;5096032;28;19953;-79
2022/05/17 06:32:30;;;;;;;;;;;18.60;98.50;;;;;;5096094;28;19955;-77
2022/05/17 06:34:56;;;;;;;;;;;18.60;99.40;;;;;;5095963;28;19908;-80
2022/05/17 06:37:23;;;;;;;;;;;18.50;99.50;;;;;;5095852;28;19994;-84
2022/05/17 06:39:49;;;;;;;;;;;18.50;99.70;;;;;;5095605;28;20368;-84
2022/05/17 06:42:16;;;;;;;;;;;18.30;99.90;;;;;;5095791;28;19908;-84
2022/05/17 06:44:43;;;;;;;;;;;18.30;99.90;;;;;;5096159;28;19908;-85
2022/05/17 06:47:09;;;;;;;;;;;18.20;99.60;;;;;;5095757;28;20438;-76
2022/05/17 06:49:37;;;;;;;;;;;18.20;99.50;;;;;;5095325;28;20022;-79
2022/05/17 06:52:04;;;;;;;;;;;18.20;99.90;;;;;;5093068;28;19924;-77
2022/05/17 06:54:31;;;;;;;;;;;18.10;99.90;;;;;;5093509;28;19912;-78
2022/05/17 06:56:57;;;;;;;;;;;18.00;99.90;;;;;;5093454;28;19912;-78
2022/05/17 06:59:24;;;;;;;;;;;17.90;99.90;;;;;;5093074;28;19965;-76
2022/05/17 07:01:51;;;;;;;;;;;17.80;99.90;;;;;;5093237;28;20672;-77
2022/05/17 07:04:18;;;;;;;;;;;17.70;99.90;;;;;;5091575;28;20361;-78
2022/05/17 07:06:45;;;;;;;;;;;17.80;99.90;;;;;;5093026;28;19919;-76
2022/05/17 07:09:12;;;;;;;;;;;17.70;99.90;;;;;;5093173;28;19908;-76
2022/05/17 07:14:24;;;;;;;;;;;17.70;99.90;;;;;;5093244;28;19915;-77
2022/05/17 07:16:50;;;;;;;;;;;17.60;99.90;;;;;;5092690;28;19908;-77
2022/05/17 07:19:17;;;;;;;;;;;17.60;99.90;;;;;;5092781;28;19962;-77
2022/05/17 07:21:43;;;;;;;;;;;17.50;99.90;;;;;;5092658;28;19908;-80
2022/05/17 07:24:10;;;;;;;;;;;17.50;99.90;;;;;;5092634;28;20359;-80
2022/05/17 07:26:37;;;;;;;;;;;17.50;99.90;;;;;;5092915;28;19920;-77
2022/05/17 07:29:03;;;;;;;;;;;17.50;99.90;;;;;;5092767;28;19930;-77
2022/05/17 07:31:30;;;;;;;;;;;17.40;99.90;;;;;;5092192;28;19914;-79
2022/05/17 07:33:58;;;;;;;;;;;17.40;99.90;;;;;;5092499;28;19942;-79
2022/05/17 07:36:25;;;;;;;;;;;17.30;99.90;;;;;;5092753;28;19935;-77
2022/05/17 07:38:52;;;;;;;;;;;17.30;99.90;;;;;;5091381;28;19958;-76
2022/05/17 07:41:19;;;;;;;;;;;17.30;99.90;;;;;;5092527;28;20056;-78
2022/05/17 07:43:46;;;;;;;;;;;17.30;99.90;;;;;;5092057;28;19912;-77
2022/05/17 07:46:12;;;;;;;;;;;17.20;99.90;;;;;;5092113;28;19916;-78
2022/05/17 07:48:39;;;;;;;;;;;17.20;99.90;;;;;;5092521;28;19908;-80
2022/05/17 07:51:06;;;;;;;;;;;17.20;99.90;;;;;;5092075;28;20481;-76
2022/05/17 07:53:33;;;;;;;;;;;17.20;99.90;;;;;;5092010;28;19947;-78
2022/05/17 07:56:00;;;;;;;;;;;17.10;99.90;;;;;;5092248;28;19919;-78
2022/05/17 07:58:27;;;;;;;;;;;17.10;99.90;;;;;;5091828;28;19908;-77
2022/05/17 08:00:53;;;;;;;;;;;17.20;99.90;;;;;;5092121;28;19908;-77
2022/05/17 08:03:21;;;;;;;;;;;17.30;99.90;;;;;;5092123;28;20274;-78
2022/05/17 08:05:48;;;;;;;;;;;17.40;99.90;;;;;;5091754;28;20410;-76
2022/05/17 08:08:15;;;;;;;;;;;17.50;99.90;;;;;;5091988;28;19915;-76
2022/05/17 08:10:41;;;;;;;;;;;17.40;99.90;;;;;;5091132;28;19908;-81
2022/05/17 08:13:08;;;;;;;;;;;17.40;99.90;;;;;;5091900;28;20049;-79
2022/05/17 08:15:35;;;;;;;;;;;17.50;99.90;;;;;;5091724;28;20359;-80
2022/05/17 08:18:02;;;;;;;;;;;17.40;99.90;;;;;;5091523;28;19916;-81
2022/05/17 08:20:30;;;;;;;;;;;17.30;99.90;;;;;;5091619;28;19912;-77
2022/05/17 08:22:56;;;;;;;;;;;17.30;99.90;;;;;;5091392;28;19913;-76
2022/05/17 08:28:08;;;;;;;;;;;17.30;99.90;;;;;;5092169;28;20585;-80
2022/05/17 08:30:36;;;;;;;;;;;17.30;99.90;;;;;;5091640;28;19912;-82
2022/05/17 08:33:17;;;;;;;;;;;17.30;99.90;;;;;;5091739;28;19908;-81
2022/05/17 08:35:43;;;;;;;;;;;17.30;99.90;;;;;;5090998;28;20366;-76
2022/05/17 08:38:11;;;;;;;;;;;17.20;99.90;;;;;;5091579;28;19908;-82
2022/05/17 08:40:50;;;;;;;;;;;17.20;99.90;;;;;;5072736;28;20287;-82
2022/05/17 08:43:26;;;;;;;;;;;17.20;99.90;;;;;;5071682;28;19920;-85
2022/05/17 08:45:55;;;;;;;;;;;17.20;99.90;;;;;;5070990;28;19955;-83
2022/05/17 08:48:22;;;;;;;;;;;17.10;99.90;;;;;;5103530;28;19916;-77
2022/05/17 08:50:49;;;;;;;;;;;17.10;99.90;;;;;;5070466;28;19917;-82
2022/05/17 08:53:19;;;;;;;;;;;17.00;99.90;;;;;;5070408;28;19940;-86
2022/05/17 08:55:49;;;;;;;;;;;17.00;99.90;;;;;;5070695;28;19908;-85
2022/05/17 08:58:30;;;;;;;;;;;17.00;99.90;;;;;;5070997;28;20278;-84
2022/05/17 09:01:05;;;;;;;;;;;16.90;99.90;;;;;;5070816;28;19959;-80
2022/05/17 09:03:56;;;;;;;;;;;16.90;99.90;;;;;;5070435;28;19909;-85
2022/05/17 09:06:35;;;;;;;;;;;16.90;99.90;;;;;;5071889;28;19930;-86
2022/05/17 09:09:07;;;;;;;;;;;16.80;99.90;;;;;;5073060;28;19983;-83
2022/05/17 09:11:40;;;;;;;;;;;16.80;99.90;;;;;;5072803;28;20441;-86
2022/05/17 09:14:14;;;;;;;;;;;16.80;99.90;;;;;;5073135;28;20002;-85
2022/05/17 09:16:53;;;;;;;;;;;16.80;99.90;;;;;;5073282;28;20312;-80
2022/05/17 09:19:20;;;;;;;;;;;16.80;99.90;;;;;;5072938;28;20267;-78
2022/05/17 09:21:50;;;;;;;;;;;16.80;99.50;;;;;;5073480;28;20332;-81
2022/05/17 09:24:20;;;;;;;;;;;16.80;99.70;;;;;;5076612;28;19915;-84
2022/05/17 09:26:51;;;;;;;;;;;16.80;99.90;;;;;;5076713;28;19916;-79
2022/05/17 09:29:33;;;;;;;;;;;16.70;99.90;;;;;;5076942;28;19951;-81
2022/05/17 09:32:03;;;;;;;;;;;16.60;99.80;;;;;;5075460;28;20000;-81
2022/05/17 09:34:33;;;;;;;;;;;16.60;99.80;;;;;;5076730;28;20003;-83
2022/05/17 09:37:12;;;;;;;;;;;16.60;99.90;;;;;;5076282;28;19916;-83
2022/05/17 09:39:39;;;;;;;;;;;16.60;99.90;;;;;;5076464;28;20274;-78
2022/05/17 09:42:08;;;;;;;;;;;16.50;99.90;;;;;;5076499;28;20006;-78
2022/05/17 09:44:39;;;;;;;;;;;16.50;99.90;;;;;;5076504;28;19959;-79
2022/05/17 09:47:06;;;;;;;;;;;16.50;99.90;;;;;;5076257;28;19970;-79
2022/05/17 09:52:38;;;;;;;;;;;16.40;99.90;;;;;;5075769;28;19977;-75
2022/05/17 09:55:07;;;;;;;;;;;16.40;99.90;;;;;;5076274;28;19908;-75
2022/05/17 09:57:33;;;;;;;;;;;16.40;99.90;;;;;;5075937;28;19957;-75
2022/05/17 10:00:13;;;;;;;;;;;16.40;99.90;;;;;;5076121;28;19947;-78
2022/05/17 10:03:04;;;;;;;;;;;16.40;99.90;;;;;;5075454;28;20210;-76
2022/05/17 10:05:50;;;;;;;;;;;16.40;99.90;;;;;;5075010;28;19991;-78
2022/05/17 10:08:28;;;;;;;;;;;16.40;99.70;;;;;;5075739;28;20244;-78
2022/05/17 10:11:07;;;;;;;;;;;16.40;99.90;;;;;;5075970;28;19912;-77
2022/05/17 10:13:46;;;;;;;;;;;16.40;99.90;;;;;;5090087;28;19978;-75
2022/05/17 10:16:19;;;;;;;;;;;16.30;99.90;;;;;;5075855;28;19912;-76
2022/05/17 10:18:53;;;;;;;;;;;16.30;99.90;;;;;;5091936;28;19919;-77
2022/05/17 10:21:23;;;;;;;;;;;16.20;99.90;;;;;;5091357;28;19920;-76
2022/05/17 10:23:54;;;;;;;;;;;16.20;99.90;;;;;;5095537;28;19916;-76
2022/05/17 10:26:25;;;;;;;;;;;16.20;99.90;;;;;;5095674;28;19970;-76
2022/05/17 10:29:02;;;;;;;;;;;16.10;99.90;;;;;;5093107;28;19912;-76
2022/05/17 10:31:43;;;;;;;;;;;16.10;99.90;;;;;;5093996;28;19912;-76
2022/05/17 10:34:46;;;;;;;;;;;16.10;99.90;;;;;;5093072;28;19916;-76
2022/05/17 10:37:20;;;;;;;;;;;16.10;99.90;;;;;;5054008;28;19912;-77
2022/05/17 10:39:53;;;;;;;;;;;16.00;99.90;;;;;;5090084;28;19908;-77
2022/05/17 10:42:20;;;;;;;;;;;15.90;99.90;;;;;;5093342;28;19935;-76
2022/05/17 10:44:53;;;;;;;;;;;15.90;99.90;;;;;;5092496;28;19912;-77
2022/05/17 10:47:25;;;;;;;;;;;15.90;99.90;;;;;;5092388;28;19927;-76
2022/05/17 10:49:56;;;;;;;;;;;15.80;99.90;;;;;;5091591;28;20282;-75
2022/05/17 10:52:38;;;;;;;;;;;15.80;99.90;;;;;;5093377;28;20260;-75
2022/05/17 10:55:08;;;;;;;;;;;15.70;99.90;;;;;;5092871;28;19912;-76
2022/05/17 10:57:37;;;;;;;;;;;15.70;99.90;;;;;;5091943;28;19915;-78
2022/05/17 11:00:18;;;;;;;;;;;15.70;99.90;;;;;;5093136;28;20017;-77
2022/05/17 11:03:10;;;;;;;;;;;15.70;99.90;;;;;;5093419;28;20034;-77
2022/05/17 11:05:45;;;;;;;;;;;15.60;99.90;;;;;;5092892;28;20312;-77
2022/05/17 11:08:11;;;;;;;;;;;15.60;99.90;;;;;;5092512;28;19908;-80
2022/05/17 11:10:38;;;;;;;;;;;15.60;99.90;;;;;;5093002;28;19908;-75
2022/05/17 11:13:14;;;;;;;;;;;15.50;99.90;;;;;;5093032;28;19951;-76
2022/05/17 11:15:48;;;;;;;;;;;15.50;99.90;;;;;;5092139;28;19915;-80
2022/05/17 11:18:31;;;;;;;;;;;15.40;99.90;;;;;;5093156;28;19959;-75
2022/05/17 11:21:02;;;;;;;;;;;15.40;99.90;;;;;;5092429;28;20014;-75
2022/05/17 11:23:32;;;;;;;;;;;15.40;99.90;;;;;;5092719;28;19912;-76
2022/05/17 11:25:58;;;;;;;;;;;15.30;99.90;;;;;;5092509;28;19912;-79
2022/05/17 11:28:25;;;;;;;;;;;15.20;99.90;;;;;;5092434;28;19908;-75
2022/05/17 11:30:52;;;;;;;;;;;15.20;99.90;;;;;;5092786;28;19912;-77
2022/05/17 11:33:25;;;;;;;;;;;15.10;99.90;;;;;;5092185;28;19957;-77
2022/05/17 11:35:56;;;;;;;;;;;15.20;99.90;;;;;;5092395;28;19912;-77
2022/05/17 11:38:32;;;;;;;;;;;15.20;99.90;;;;;;5092412;28;19995;-77
2022/05/17 11:41:00;;;;;;;;;;;15.10;99.90;;;;;;5092565;28;19912;-75
2022/05/17 11:43:41;;;;;;;;;;;15.10;99.90;;;;;;5092567;28;19908;-75
2022/05/17 11:46:26;;;;;;;;;;;15.10;99.90;;;;;;5091122;28;19997;-76
2022/05/17 11:48:58;;;;;;;;;;;15.10;99.90;;;;;;5092500;28;19919;-77
2022/05/17 11:51:29;;;;;;;;;;;15.10;99.90;;;;;;5093594;28;20324;-76
2022/05/17 11:53:56;;;;;;;;;;;15.10;99.90;;;;;;5094353;28;19908;-76
2022/05/17 11:56:26;;;;;;;;;;;15.10;99.90;;;;;;5094351;28;19912;-76
2022/05/17 11:58:54;;;;;;;;;;;15.00;99.90;;;;;;5094329;28;19915;-76
2022/05/17 12:01:27;;;;;;;;;;;15.00;99.90;;;;;;5094330;28;20028;-76
2022/05/17 12:03:55;;;;;;;;;;;14.90;99.90;;;;;;5082569;28;20025;-79
2022/05/17 12:06:48;;;;;;;;;;;14.90;99.90;;;;;;5071074;28;19952;-77
2022/05/17 12:09:24;;;;;;;;;;;14.80;99.90;;;;;;5063051;28;19908;-77
2022/05/17 12:11:53;;;;;;;;;;;14.80;99.90;;;;;;5071439;28;19908;-78
2022/05/17 12:14:23;;;;;;;;;;;14.80;99.90;;;;;;5071764;28;19916;-80
2022/05/17 12:16:51;;;;;;;;;;;14.80;99.90;;;;;;5071712;28;19966;-80
2022/05/17 12:19:18;;;;;;;;;;;14.70;99.90;;;;;;5070544;28;19909;-78
2022/05/17 12:21:48;;;;;;;;;;;14.80;99.90;;;;;;5071767;28;19916;-81
2022/05/17 12:24:24;;;;;;;;;;;14.70;99.90;;;;;;5071516;28;19919;-85
2022/05/17 12:27:00;;;;;;;;;;;14.70;99.90;;;;;;5070250;28;20355;-84
2022/05/17 12:32:19;;;;;;;;;;;14.70;99.90;;;;;;5071375;28;20325;-77
2022/05/17 12:34:57;;;;;;;;;;;14.50;99.90;;;;;;5071005;28;19951;-78
2022/05/17 12:37:25;;;;;;;;;;;14.60;99.90;;;;;;5103280;28;19909;-79
2022/05/17 12:43:03;;;;;;;;;;;14.60;99.90;;;;;;5048780;28;19909;-79
2022/05/17 12:45:32;;;;;;;;;;;14.50;99.90;;;;;;5048048;28;19982;-80
2022/05/17 12:48:00;;;;;;;;;;;14.50;99.90;;;;;;5060430;28;19924;-82
2022/05/17 12:50:38;;;;;;;;;;;14.50;99.90;;;;;;5070388;28;20367;-82
2022/05/17 12:53:10;;;;;;;;;;;14.50;99.90;;;;;;5071041;28;20386;-83
2022/05/17 12:55:37;;;;;;;;;;;14.50;99.90;;;;;;5103451;28;19908;-78
2022/05/17 12:58:11;;;;;;;;;;;14.50;99.90;;;;;;5070817;28;20453;-79
2022/05/17 13:00:39;;;;;;;;;;;14.50;99.90;;;;;;5070964;28;19909;-81
2022/05/17 13:03:17;;;;;;;;;;;14.40;99.90;;;;;;5069798;28;20309;-82
2022/05/17 13:05:49;;;;;;;;;;;14.40;99.90;;;;;;5070771;28;19916;-82
2022/05/17 13:08:19;;;;;;;;;;;14.30;99.90;;;;;;5070993;28;20019;-80
2022/05/17 13:11:01;;;;;;;;;;;14.40;99.90;;;;;;5070584;28;19951;-85
2022/05/17 13:13:28;;;;;;;;;;;14.30;99.90;;;;;;5071355;28;20003;-85
2022/05/17 13:15:58;;;;;;;;;;;14.30;99.90;;;;;;5071001;28;19909;-84
2022/05/17 13:18:30;;;;;;;;;;;14.30;99.90;;;;;;5069975;28;20363;-79
2022/05/17 13:20:59;;;;;;;;;;;14.30;99.90;;;;;;5070826;28;19935;-79
2022/05/17 13:23:27;;;;;;;;;;;14.30;99.90;;;;;;5070431;28;19908;-83
2022/05/17 13:25:55;;;;;;;;;;;14.30;99.90;;;;;;5070654;28;19998;-81
2022/05/17 13:28:27;;;;;;;;;;;14.30;99.90;;;;;;5070785;28;19919;-79
2022/05/17 13:31:16;;;;;;;;;;;14.20;99.90;;;;;;5070717;28;20029;-84
2022/05/17 13:33:55;;;;;;;;;;;14.20;99.90;;;;;;5070353;28;19999;-82
2022/05/17 13:36:30;;;;;;;;;;;14.30;99.90;;;;;;5070381;28;19909;-84
2022/05/17 13:38:57;;;;;;;;;;;14.30;99.90;;;;;;5070865;28;19916;-84
2022/05/17 13:41:30;;;;;;;;;;;14.30;99.90;;;;;;5070838;28;19919;-83
2022/05/17 13:44:00;;;;;;;;;;;14.30;99.90;;;;;;5070886;28;20033;-79
2022/05/17 13:46:34;;;;;;;;;;;14.30;99.90;;;;;;5070588;28;20003;-80
2022/05/17 13:49:08;;;;;;;;;;;14.30;99.90;;;;;;5070216;28;19912;-81
2022/05/17 13:51:52;;;;;;;;;;;14.30;99.90;;;;;;5070268;28;20326;-77
2022/05/17 13:54:21;;;;;;;;;;;14.30;99.90;;;;;;5070730;28;20351;-77
2022/05/17 13:56:55;;;;;;;;;;;14.30;99.90;;;;;;5070662;28;19909;-78
2022/05/17 13:59:22;;;;;;;;;;;14.30;99.90;;;;;;5070528;28;19915;-77
2022/05/17 14:01:58;;;;;;;;;;;14.30;99.90;;;;;;5070144;28;20367;-77
2022/05/17 14:04:27;;;;;;;;;;;14.30;99.90;;;;;;5102473;28;19970;-79
2022/05/17 14:07:02;;;;;;;;;;;14.20;99.90;;;;;;5070397;28;19921;-79
2022/05/17 14:12:20;;;;;;;;;;;14.20;99.90;;;;;;5074482;28;19915;-76
2022/05/17 14:14:49;;;;;;;;;;;14.10;99.90;;;;;;5073874;28;19918;-76
2022/05/17 14:17:23;;;;;;;;;;;14.10;99.90;;;;;;5073949;28;19912;-78
2022/05/17 14:19:52;;;;;;;;;;;14.10;99.90;;;;;;5073713;28;19912;-79
2022/05/17 14:22:19;;;;;;;;;;;14.10;99.90;;;;;;5073793;28;20002;-81
2022/05/17 14:24:46;;;;;;;;;;;14.00;99.90;;;;;;5073738;28;19959;-83
2022/05/17 14:27:13;;;;;;;;;;;14.00;99.90;;;;;;5073652;28;19921;-83
2022/05/17 14:29:40;;;;;;;;;;;14.00;99.90;;;;;;5073157;28;19978;-79
2022/05/17 14:32:07;;;;;;;;;;;13.90;99.90;;;;;;5073845;28;19913;-77
2022/05/17 14:34:34;;;;;;;;;;;13.80;99.90;;;;;;5073085;28;19951;-81
2022/05/17 14:37:01;;;;;;;;;;;13.90;99.90;;;;;;5073380;28;20349;-83
2022/05/17 14:39:27;;;;;;;;;;;13.80;99.90;;;;;;5073406;28;19914;-82
2022/05/17 14:41:54;;;;;;;;;;;13.80;99.90;;;;;;5073039;28;19908;-84
2022/05/17 14:44:22;;;;;;;;;;;13.80;99.90;;;;;;5073671;28;19909;-83
2022/05/17 14:46:49;;;;;;;;;;;13.80;99.90;;;;;;5073510;28;20284;-79
2022/05/17 14:49:18;;;;;;;;;;;13.90;99.90;;;;;;5073363;28;20035;-80